Southminster, United Kingdom
Current Conditions -  °F | °C
As of 1:50 AM on Sunday 23 Nov 2014 (Local Time) from EGMC Reporting Station
Drizzle Drizzle  
Wind Chill: 55°   Ceiling: 400
Heat Index: 55°   Visibility: 2.5mi
Dew Point: 54°   Wind: 5mph
Humidity: 94%   Direction: 90°E
Pressure: 29.94"   Gusts: NA
Location:  51.66°N, 0.83°E
Report Text: EGMC 230150Z 09004KT 4000 -DZ BR OVC004 13/12 Q1014
Loading
Personal Weather Stations






























Interactive Weather Map New forecast layout! Learn more

10-Day Weather Forecast

Advertisements
Track Severe Weather on mobile